sensor_id;sensor_type;location;lat;lon;timestamp;pressure;altitude;pressure_sealevel;temperature;humidity
75063;BME280;63981;51.052;13.754;2023-11-19T00:00:17;100532.19;;;5.07;78.57
75063;BME280;63981;51.052;13.754;2023-11-19T00:02:43;100523.81;;;4.99;79.22
75063;BME280;63981;51.052;13.754;2023-11-19T00:05:10;100515.78;;;5.03;79.01
75063;BME280;63981;51.052;13.754;2023-11-19T00:07:37;100514.22;;;4.99;79.30
75063;BME280;63981;51.052;13.754;2023-11-19T00:10:16;100491.00;;;4.92;78.54
75063;BME280;63981;51.052;13.754;2023-11-19T00:12:47;100472.97;;;4.86;78.72
75063;BME280;63981;51.052;13.754;2023-11-19T00:15:15;100465.25;;;4.83;79.20
75063;BME280;63981;51.052;13.754;2023-11-19T00:17:42;100397.03;;;4.47;78.32
75063;BME280;63981;51.052;13.754;2023-11-19T00:20:12;100418.50;;;4.53;78.84
75063;BME280;63981;51.052;13.754;2023-11-19T00:22:38;100444.00;;;4.68;79.29
75063;BME280;63981;51.052;13.754;2023-11-19T00:25:05;100440.94;;;4.59;79.08
75063;BME280;63981;51.052;13.754;2023-11-19T00:27:31;100455.63;;;4.61;78.96
75063;BME280;63981;51.052;13.754;2023-11-19T00:29:58;100436.25;;;4.67;79.61
75063;BME280;63981;51.052;13.754;2023-11-19T00:32:24;100431.94;;;4.66;79.08
75063;BME280;63981;51.052;13.754;2023-11-19T00:34:50;100438.69;;;4.71;79.10
75063;BME280;63981;51.052;13.754;2023-11-19T00:37:16;100438.75;;;4.70;78.51
75063;BME280;63981;51.052;13.754;2023-11-19T00:39:43;100417.50;;;4.57;78.62
75063;BME280;63981;51.052;13.754;2023-11-19T00:42:12;100432.72;;;4.68;78.29
75063;BME280;63981;51.052;13.754;2023-11-19T00:44:38;100430.09;;;4.68;78.09
75063;BME280;63981;51.052;13.754;2023-11-19T00:47:04;100428.19;;;4.73;78.28
75063;BME280;63981;51.052;13.754;2023-11-19T00:49:31;100422.66;;;4.81;77.85
75063;BME280;63981;51.052;13.754;2023-11-19T00:51:59;100416.78;;;4.76;77.68
75063;BME280;63981;51.052;13.754;2023-11-19T00:54:25;100403.06;;;4.70;78.31
75063;BME280;63981;51.052;13.754;2023-11-19T00:56:52;100403.53;;;4.58;78.50
75063;BME280;63981;51.052;13.754;2023-11-19T00:59:19;100401.44;;;4.66;78.64
75063;BME280;63981;51.052;13.754;2023-11-19T01:01:45;100394.38;;;4.70;77.87
75063;BME280;63981;51.052;13.754;2023-11-19T01:04:11;100384.94;;;4.66;79.01
75063;BME280;63981;51.052;13.754;2023-11-19T01:06:37;100384.09;;;4.65;78.98
75063;BME280;63981;51.052;13.754;2023-11-19T01:09:03;100371.03;;;4.65;78.83
75063;BME280;63981;51.052;13.754;2023-11-19T01:11:29;100353.94;;;4.58;77.95
75063;BME280;63981;51.052;13.754;2023-11-19T01:13:55;100356.84;;;4.72;79.45
75063;BME280;63981;51.052;13.754;2023-11-19T01:16:22;100335.22;;;4.69;79.21
75063;BME280;63981;51.052;13.754;2023-11-19T01:18:48;100318.22;;;4.59;78.01
75063;BME280;63981;51.052;13.754;2023-11-19T01:21:15;100327.28;;;4.72;79.28
75063;BME280;63981;51.052;13.754;2023-11-19T01:23:42;100319.59;;;4.67;78.42
75063;BME280;63981;51.052;13.754;2023-11-19T01:26:12;100336.47;;;4.81;78.81
75063;BME280;63981;51.052;13.754;2023-11-19T01:28:41;100328.41;;;4.87;77.52
75063;BME280;63981;51.052;13.754;2023-11-19T01:31:11;100304.56;;;4.74;77.93
75063;BME280;63981;51.052;13.754;2023-11-19T01:33:39;100316.19;;;4.87;78.33
75063;BME280;63981;51.052;13.754;2023-11-19T01:36:06;100314.13;;;4.95;78.37
75063;BME280;63981;51.052;13.754;2023-11-19T01:38:34;100300.78;;;5.01;77.60
75063;BME280;63981;51.052;13.754;2023-11-19T01:41:02;100305.88;;;5.04;77.48
75063;BME280;63981;51.052;13.754;2023-11-19T01:43:39;100288.13;;;5.13;77.74
75063;BME280;63981;51.052;13.754;2023-11-19T01:46:08;100276.81;;;5.12;77.05
75063;BME280;63981;51.052;13.754;2023-11-19T01:48:42;100281.97;;;5.14;77.23
75063;BME280;63981;51.052;13.754;2023-11-19T01:51:12;100269.91;;;5.11;77.13
75063;BME280;63981;51.052;13.754;2023-11-19T01:53:39;100276.16;;;5.07;77.28
75063;BME280;63981;51.052;13.754;2023-11-19T01:56:07;100255.47;;;5.02;76.24
75063;BME280;63981;51.052;13.754;2023-11-19T01:58:39;100251.88;;;5.05;76.54
75063;BME280;63981;51.052;13.754;2023-11-19T02:01:06;100240.72;;;5.01;76.98
75063;BME280;63981;51.052;13.754;2023-11-19T02:03:33;100229.97;;;5.08;76.97
75063;BME280;63981;51.052;13.754;2023-11-19T02:06:00;100205.75;;;5.04;76.65
75063;BME280;63981;51.052;13.754;2023-11-19T02:08:27;100208.06;;;5.12;76.96
75063;BME280;63981;51.052;13.754;2023-11-19T02:10:53;100212.16;;;5.17;77.16
75063;BME280;63981;51.052;13.754;2023-11-19T02:13:26;100218.09;;;5.21;76.91
75063;BME280;63981;51.052;13.754;2023-11-19T02:15:52;100214.44;;;5.25;77.54
75063;BME280;63981;51.052;13.754;2023-11-19T02:18:27;100206.59;;;5.25;77.28
75063;BME280;63981;51.052;13.754;2023-11-19T02:20:58;100193.47;;;5.26;77.62
75063;BME280;63981;51.052;13.754;2023-11-19T02:23:27;100169.88;;;5.28;77.30
75063;BME280;63981;51.052;13.754;2023-11-19T02:28:28;100160.88;;;5.33;78.11
75063;BME280;63981;51.052;13.754;2023-11-19T02:30:54;100155.38;;;5.40;77.69
75063;BME280;63981;51.052;13.754;2023-11-19T02:33:20;100144.16;;;5.38;77.97
75063;BME280;63981;51.052;13.754;2023-11-19T02:35:46;100154.53;;;5.39;77.30
75063;BME280;63981;51.052;13.754;2023-11-19T02:38:12;100137.16;;;5.38;77.10
75063;BME280;63981;51.052;13.754;2023-11-19T02:40:40;100137.94;;;5.40;77.18
75063;BME280;63981;51.052;13.754;2023-11-19T02:43:06;100131.78;;;5.41;77.55
75063;BME280;63981;51.052;13.754;2023-11-19T02:45:32;100116.53;;;5.32;77.29
75063;BME280;63981;51.052;13.754;2023-11-19T02:47:59;100108.34;;;5.40;77.36
75063;BME280;63981;51.052;13.754;2023-11-19T02:50:28;100109.13;;;5.42;76.65
75063;BME280;63981;51.052;13.754;2023-11-19T02:52:55;100123.81;;;5.44;77.64
75063;BME280;63981;51.052;13.754;2023-11-19T02:55:22;100112.34;;;5.47;76.89
75063;BME280;63981;51.052;13.754;2023-11-19T02:57:50;100106.81;;;5.36;76.84
75063;BME280;63981;51.052;13.754;2023-11-19T03:00:19;100086.44;;;5.42;76.73
75063;BME280;63981;51.052;13.754;2023-11-19T03:03:12;100080.00;;;5.49;76.86
75063;BME280;63981;51.052;13.754;2023-11-19T03:05:46;100081.63;;;5.52;76.25
75063;BME280;63981;51.052;13.754;2023-11-19T03:08:13;100071.72;;;5.58;76.35
75063;BME280;63981;51.052;13.754;2023-11-19T03:10:39;100054.19;;;5.60;75.85
75063;BME280;63981;51.052;13.754;2023-11-19T03:13:05;100063.44;;;5.68;75.41
75063;BME280;63981;51.052;13.754;2023-11-19T03:15:31;100051.50;;;5.62;75.27
75063;BME280;63981;51.052;13.754;2023-11-19T03:17:57;100051.50;;;5.62;75.56
75063;BME280;63981;51.052;13.754;2023-11-19T03:20:23;100055.75;;;5.65;75.26
75063;BME280;63981;51.052;13.754;2023-11-19T03:22:53;100046.91;;;5.67;75.28
75063;BME280;63981;51.052;13.754;2023-11-19T03:25:19;100056.50;;;5.67;75.14
75063;BME280;63981;51.052;13.754;2023-11-19T03:27:47;100038.97;;;5.69;74.70
75063;BME280;63981;51.052;13.754;2023-11-19T03:30:13;100028.66;;;5.66;74.85
75063;BME280;63981;51.052;13.754;2023-11-19T03:32:39;100029.50;;;5.66;74.57
75063;BME280;63981;51.052;13.754;2023-11-19T03:35:06;100012.72;;;5.53;74.71
75063;BME280;63981;51.052;13.754;2023-11-19T03:37:35;100031.88;;;5.71;74.75
75063;BME280;63981;51.052;13.754;2023-11-19T03:40:02;100019.47;;;5.76;74.51
75063;BME280;63981;51.052;13.754;2023-11-19T03:42:29;100017.59;;;5.78;73.94
75063;BME280;63981;51.052;13.754;2023-11-19T03:44:58;100012.13;;;5.82;73.80
75063;BME280;63981;51.052;13.754;2023-11-19T03:47:24;100002.69;;;5.80;74.30
75063;BME280;63981;51.052;13.754;2023-11-19T03:49:51;99991.53;;;5.76;74.14
75063;BME280;63981;51.052;13.754;2023-11-19T03:52:18;99984.38;;;5.80;74.54
75063;BME280;63981;51.052;13.754;2023-11-19T03:54:44;99983.34;;;5.82;74.68
75063;BME280;63981;51.052;13.754;2023-11-19T03:57:12;99976.22;;;5.86;74.69
75063;BME280;63981;51.052;13.754;2023-11-19T03:59:39;99969.16;;;5.88;75.46
75063;BME280;63981;51.052;13.754;2023-11-19T04:02:05;99944.00;;;5.68;74.62
75063;BME280;63981;51.052;13.754;2023-11-19T04:04:32;99946.31;;;5.74;75.51
75063;BME280;63981;51.052;13.754;2023-11-19T04:07:00;99963.53;;;5.78;75.37
75063;BME280;63981;51.052;13.754;2023-11-19T04:09:26;99957.38;;;5.79;75.44
75063;BME280;63981;51.052;13.754;2023-11-19T04:11:53;99953.06;;;5.78;75.45
75063;BME280;63981;51.052;13.754;2023-11-19T04:14:19;99925.69;;;5.68;75.43
75063;BME280;63981;51.052;13.754;2023-11-19T04:16:45;99934.22;;;5.72;75.69
75063;BME280;63981;51.052;13.754;2023-11-19T04:19:11;99931.69;;;5.70;75.28
75063;BME280;63981;51.052;13.754;2023-11-19T04:21:40;99921.72;;;5.61;75.49
75063;BME280;63981;51.052;13.754;2023-11-19T04:24:08;99929.47;;;5.62;75.87
75063;BME280;63981;51.052;13.754;2023-11-19T04:26:34;99940.00;;;5.61;75.90
75063;BME280;63981;51.052;13.754;2023-11-19T04:29:00;99926.97;;;5.59;76.51
75063;BME280;63981;51.052;13.754;2023-11-19T04:31:29;99918.84;;;5.66;76.78
75063;BME280;63981;51.052;13.754;2023-11-19T04:33:59;99927.47;;;5.68;77.50
75063;BME280;63981;51.052;13.754;2023-11-19T04:36:26;99910.53;;;5.57;78.74
75063;BME280;63981;51.052;13.754;2023-11-19T04:38:52;99932.16;;;5.61;79.40
75063;BME280;63981;51.052;13.754;2023-11-19T04:41:18;99921.31;;;5.51;80.65
75063;BME280;63981;51.052;13.754;2023-11-19T04:43:44;99914.16;;;5.38;82.85
75063;BME280;63981;51.052;13.754;2023-11-19T04:46:10;99909.47;;;5.27;84.46
75063;BME280;63981;51.052;13.754;2023-11-19T04:48:37;99913.53;;;5.15;84.60
75063;BME280;63981;51.052;13.754;2023-11-19T04:51:07;99893.31;;;5.01;84.84
75063;BME280;63981;51.052;13.754;2023-11-19T04:53:35;99903.84;;;5.17;85.45
75063;BME280;63981;51.052;13.754;2023-11-19T04:56:01;99896.25;;;5.13;86.18
75063;BME280;63981;51.052;13.754;2023-11-19T04:58:33;99886.72;;;5.12;86.48
75063;BME280;63981;51.052;13.754;2023-11-19T05:00:59;99876.25;;;5.12;86.76
75063;BME280;63981;51.052;13.754;2023-11-19T05:03:25;99895.41;;;5.12;87.45
75063;BME280;63981;51.052;13.754;2023-11-19T05:05:52;99887.22;;;5.01;87.47
75063;BME280;63981;51.052;13.754;2023-11-19T05:08:19;99879.47;;;4.99;87.89
75063;BME280;63981;51.052;13.754;2023-11-19T05:10:45;99876.53;;;4.88;87.62
75063;BME280;63981;51.052;13.754;2023-11-19T05:13:11;99878.81;;;4.77;89.30
75063;BME280;63981;51.052;13.754;2023-11-19T05:15:38;99871.91;;;4.76;89.74
75063;BME280;63981;51.052;13.754;2023-11-19T05:18:04;99870.22;;;4.75;90.13
75063;BME280;63981;51.052;13.754;2023-11-19T05:20:30;99873.81;;;4.72;89.77
75063;BME280;63981;51.052;13.754;2023-11-19T05:22:56;99872.22;;;4.70;90.31
75063;BME280;63981;51.052;13.754;2023-11-19T05:25:22;99875.78;;;4.67;90.37
75063;BME280;63981;51.052;13.754;2023-11-19T05:27:49;99858.44;;;4.66;91.93
75063;BME280;63981;51.052;13.754;2023-11-19T05:30:15;99857.59;;;4.66;91.88
75063;BME280;63981;51.052;13.754;2023-11-19T05:32:41;99837.53;;;4.66;92.09
75063;BME280;63981;51.052;13.754;2023-11-19T05:35:07;99835.59;;;4.71;92.52
75063;BME280;63981;51.052;13.754;2023-11-19T05:37:34;99836.28;;;4.75;92.09
75063;BME280;63981;51.052;13.754;2023-11-19T05:40:01;99810.16;;;4.58;91.72
75063;BME280;63981;51.052;13.754;2023-11-19T05:42:29;99817.06;;;4.59;91.50
75063;BME280;63981;51.052;13.754;2023-11-19T05:44:55;99831.19;;;4.72;91.60
75063;BME280;63981;51.052;13.754;2023-11-19T05:47:21;99831.47;;;4.66;91.38
75063;BME280;63981;51.052;13.754;2023-11-19T05:49:48;99841.00;;;4.67;92.43
75063;BME280;63981;51.052;13.754;2023-11-19T05:52:14;99835.00;;;4.65;92.37
75063;BME280;63981;51.052;13.754;2023-11-19T05:54:41;99830.56;;;4.67;92.42
75063;BME280;63981;51.052;13.754;2023-11-19T05:57:07;99822.59;;;4.70;91.78
75063;BME280;63981;51.052;13.754;2023-11-19T05:59:35;99812.28;;;4.67;92.23
75063;BME280;63981;51.052;13.754;2023-11-19T06:02:05;99809.16;;;4.78;91.69
75063;BME280;63981;51.052;13.754;2023-11-19T06:04:31;99821.09;;;4.83;91.13
75063;BME280;63981;51.052;13.754;2023-11-19T06:06:57;99819.41;;;4.82;90.85
75063;BME280;63981;51.052;13.754;2023-11-19T06:09:23;99797.25;;;4.72;91.20
75063;BME280;63981;51.052;13.754;2023-11-19T06:11:52;99786.66;;;4.75;91.59
75063;BME280;63981;51.052;13.754;2023-11-19T06:14:18;99789.88;;;4.80;90.87
75063;BME280;63981;51.052;13.754;2023-11-19T06:16:44;99782.84;;;4.82;91.55
75063;BME280;63981;51.052;13.754;2023-11-19T06:19:10;99777.47;;;4.85;90.76
75063;BME280;63981;51.052;13.754;2023-11-19T06:21:37;99776.94;;;4.96;90.94
75063;BME280;63981;51.052;13.754;2023-11-19T06:24:04;99762.69;;;5.01;90.59
75063;BME280;63981;51.052;13.754;2023-11-19T06:26:30;99764.72;;;4.96;89.73
75063;BME280;63981;51.052;13.754;2023-11-19T06:28:56;99765.75;;;4.92;90.41
75063;BME280;63981;51.052;13.754;2023-11-19T06:31:22;99760.22;;;4.81;89.95
75063;BME280;63981;51.052;13.754;2023-11-19T06:33:48;99743.03;;;4.77;89.59
75063;BME280;63981;51.052;13.754;2023-11-19T06:36:14;99751.88;;;4.74;90.49
75063;BME280;63981;51.052;13.754;2023-11-19T06:38:43;99744.72;;;4.78;90.13
75063;BME280;63981;51.052;13.754;2023-11-19T06:41:09;99755.25;;;4.94;89.92
75063;BME280;63981;51.052;13.754;2023-11-19T06:43:36;99767.16;;;4.99;89.99
75063;BME280;63981;51.052;13.754;2023-11-19T06:46:03;99756.47;;;5.04;90.24
75063;BME280;63981;51.052;13.754;2023-11-19T06:48:34;99751.09;;;5.07;89.59
75063;BME280;63981;51.052;13.754;2023-11-19T06:51:00;99759.38;;;5.15;89.54
75063;BME280;63981;51.052;13.754;2023-11-19T06:53:26;99746.16;;;5.18;89.73
75063;BME280;63981;51.052;13.754;2023-11-19T06:55:54;99746.25;;;5.17;89.77
75063;BME280;63981;51.052;13.754;2023-11-19T06:58:20;99744.47;;;5.17;89.45
75063;BME280;63981;51.052;13.754;2023-11-19T07:00:46;99746.91;;;5.20;89.57
75063;BME280;63981;51.052;13.754;2023-11-19T07:03:13;99738.00;;;5.24;88.62
75063;BME280;63981;51.052;13.754;2023-11-19T07:05:40;99748.91;;;5.32;88.86
75063;BME280;63981;51.052;13.754;2023-11-19T07:08:06;99748.84;;;5.34;88.60
75063;BME280;63981;51.052;13.754;2023-11-19T07:10:35;99746.16;;;5.36;88.72
75063;BME280;63981;51.052;13.754;2023-11-19T07:13:01;99748.75;;;5.36;88.92
75063;BME280;63981;51.052;13.754;2023-11-19T07:15:31;99758.41;;;5.33;89.11
75063;BME280;63981;51.052;13.754;2023-11-19T07:17:58;99752.81;;;5.41;88.94
75063;BME280;63981;51.052;13.754;2023-11-19T07:20:25;99761.09;;;5.49;88.99
75063;BME280;63981;51.052;13.754;2023-11-19T07:22:52;99772.16;;;5.54;88.98
75063;BME280;63981;51.052;13.754;2023-11-19T07:25:18;99760.38;;;5.46;88.31
75063;BME280;63981;51.052;13.754;2023-11-19T07:27:44;99771.78;;;5.45;88.64
75063;BME280;63981;51.052;13.754;2023-11-19T07:30:11;99771.38;;;5.52;88.99
75063;BME280;63981;51.052;13.754;2023-11-19T07:32:37;99771.47;;;5.51;88.88
75063;BME280;63981;51.052;13.754;2023-11-19T07:35:05;99763.47;;;5.54;89.04
75063;BME280;63981;51.052;13.754;2023-11-19T07:37:31;99782.59;;;5.54;89.49
75063;BME280;63981;51.052;13.754;2023-11-19T07:39:57;99771.56;;;5.49;89.14
75063;BME280;63981;51.052;13.754;2023-11-19T07:42:23;99770.00;;;5.45;89.52
75063;BME280;63981;51.052;13.754;2023-11-19T07:44:50;99751.72;;;5.45;89.98
75063;BME280;63981;51.052;13.754;2023-11-19T07:47:16;99754.19;;;5.48;90.07
75063;BME280;63981;51.052;13.754;2023-11-19T07:49:42;99770.06;;;5.61;90.28
75063;BME280;63981;51.052;13.754;2023-11-19T07:52:09;99764.25;;;5.72;89.65
75063;BME280;63981;51.052;13.754;2023-11-19T07:54:35;99762.56;;;5.71;89.96
75063;BME280;63981;51.052;13.754;2023-11-19T07:57:01;99752.34;;;5.66;90.18
75063;BME280;63981;51.052;13.754;2023-11-19T07:59:27;99757.75;;;5.63;90.57
75063;BME280;63981;51.052;13.754;2023-11-19T08:01:54;99765.63;;;5.79;92.00
75063;BME280;63981;51.052;13.754;2023-11-19T08:04:20;99783.22;;;5.93;91.28
75063;BME280;63981;51.052;13.754;2023-11-19T08:06:46;99771.81;;;6.09;92.44
75063;BME280;63981;51.052;13.754;2023-11-19T08:09:12;99766.75;;;6.22;90.77
75063;BME280;63981;51.052;13.754;2023-11-19T08:11:42;99770.06;;;6.26;90.95
75063;BME280;63981;51.052;13.754;2023-11-19T08:14:08;99780.53;;;6.26;89.50
75063;BME280;63981;51.052;13.754;2023-11-19T08:16:34;99757.72;;;6.12;89.47
75063;BME280;63981;51.052;13.754;2023-11-19T08:19:00;99742.72;;;6.15;89.82
75063;BME280;63981;51.052;13.754;2023-11-19T08:21:26;99736.78;;;6.28;90.05
75063;BME280;63981;51.052;13.754;2023-11-19T08:23:53;99737.94;;;6.38;90.08
75063;BME280;63981;51.052;13.754;2023-11-19T08:26:19;99739.00;;;6.49;89.57
75063;BME280;63981;51.052;13.754;2023-11-19T08:28:45;99743.53;;;6.62;89.73
75063;BME280;63981;51.052;13.754;2023-11-19T08:31:11;99729.84;;;6.72;89.39
75063;BME280;63981;51.052;13.754;2023-11-19T08:33:37;99733.91;;;6.78;89.09
75063;BME280;63981;51.052;13.754;2023-11-19T08:36:04;99739.31;;;6.89;88.72
75063;BME280;63981;51.052;13.754;2023-11-19T08:38:30;99746.47;;;7.01;88.94
75063;BME280;63981;51.052;13.754;2023-11-19T08:40:56;99734.41;;;7.13;88.17
75063;BME280;63981;51.052;13.754;2023-11-19T08:43:26;99746.31;;;7.19;88.25
75063;BME280;63981;51.052;13.754;2023-11-19T08:45:53;99745.94;;;7.25;88.51
75063;BME280;63981;51.052;13.754;2023-11-19T08:48:19;99728.25;;;7.28;88.44
75063;BME280;63981;51.052;13.754;2023-11-19T08:50:45;99720.47;;;7.41;87.61
75063;BME280;63981;51.052;13.754;2023-11-19T08:53:11;99735.84;;;7.47;87.87
75063;BME280;63981;51.052;13.754;2023-11-19T08:55:37;99747.16;;;7.62;87.87
75063;BME280;63981;51.052;13.754;2023-11-19T08:58:03;99734.16;;;7.60;87.72
75063;BME280;63981;51.052;13.754;2023-11-19T09:00:29;99755.53;;;7.68;87.61
75063;BME280;63981;51.052;13.754;2023-11-19T09:02:58;99739.31;;;7.62;87.44
75063;BME280;63981;51.052;13.754;2023-11-19T09:05:25;99774.78;;;7.67;87.18
75063;BME280;63981;51.052;13.754;2023-11-19T09:07:51;99758.69;;;7.74;88.06
75063;BME280;63981;51.052;13.754;2023-11-19T09:10:17;99761.41;;;7.72;88.12
75063;BME280;63981;51.052;13.754;2023-11-19T09:12:43;99757.75;;;7.75;88.60
75063;BME280;63981;51.052;13.754;2023-11-19T09:15:09;99742.31;;;7.70;90.17
75063;BME280;63981;51.052;13.754;2023-11-19T09:17:36;99750.69;;;7.89;90.86
75063;BME280;63981;51.052;13.754;2023-11-19T09:20:02;99756.78;;;7.90;90.73
75063;BME280;63981;51.052;13.754;2023-11-19T09:22:28;99759.38;;;8.04;90.72
75063;BME280;63981;51.052;13.754;2023-11-19T09:24:54;99753.47;;;8.15;90.03
75063;BME280;63981;51.052;13.754;2023-11-19T09:27:21;99755.59;;;8.22;89.96
75063;BME280;63981;51.052;13.754;2023-11-19T09:29:47;99768.03;;;8.33;89.35
75063;BME280;63981;51.052;13.754;2023-11-19T09:32:14;99771.88;;;8.42;89.61
75063;BME280;63981;51.052;13.754;2023-11-19T09:34:40;99755.66;;;8.49;89.54
75063;BME280;63981;51.052;13.754;2023-11-19T09:37:07;99751.66;;;8.56;89.76
75063;BME280;63981;51.052;13.754;2023-11-19T09:39:33;99739.28;;;8.71;90.20
75063;BME280;63981;51.052;13.754;2023-11-19T09:41:59;99747.34;;;8.95;90.69
75063;BME280;63981;51.052;13.754;2023-11-19T09:44:26;99735.78;;;9.10;91.34
75063;BME280;63981;51.052;13.754;2023-11-19T09:46:53;99737.78;;;9.32;90.95
75063;BME280;63981;51.052;13.754;2023-11-19T09:49:21;99743.47;;;9.52;91.24
75063;BME280;63981;51.052;13.754;2023-11-19T09:51:48;99737.75;;;9.70;90.29
75063;BME280;63981;51.052;13.754;2023-11-19T09:54:14;99747.50;;;9.94;89.81
75063;BME280;63981;51.052;13.754;2023-11-19T09:56:41;99735.09;;;10.20;88.47
75063;BME280;63981;51.052;13.754;2023-11-19T09:59:08;99725.34;;;10.46;87.73
75063;BME280;63981;51.052;13.754;2023-11-19T10:01:36;99733.06;;;10.60;85.73
75063;BME280;63981;51.052;13.754;2023-11-19T10:04:03;99719.09;;;10.71;84.98
75063;BME280;63981;51.052;13.754;2023-11-19T10:06:29;99722.50;;;10.84;83.65
75063;BME280;63981;51.052;13.754;2023-11-19T10:08:55;99714.28;;;11.11;83.28
75063;BME280;63981;51.052;13.754;2023-11-19T10:11:21;99694.97;;;11.10;82.60
75063;BME280;63981;51.052;13.754;2023-11-19T10:13:48;99703.25;;;11.17;81.12
75063;BME280;63981;51.052;13.754;2023-11-19T10:16:15;99707.94;;;11.25;80.51
75063;BME280;63981;51.052;13.754;2023-11-19T10:18:49;99698.72;;;11.41;79.90
75063;BME280;63981;51.052;13.754;2023-11-19T10:21:19;99693.44;;;11.52;78.89
75063;BME280;63981;51.052;13.754;2023-11-19T10:23:52;99704.44;;;11.69;79.07
75063;BME280;63981;51.052;13.754;2023-11-19T10:26:20;99702.53;;;11.71;77.76
75063;BME280;63981;51.052;13.754;2023-11-19T10:28:47;99703.03;;;11.76;78.03
75063;BME280;63981;51.052;13.754;2023-11-19T10:31:17;99699.78;;;11.84;76.70
75063;BME280;63981;51.052;13.754;2023-11-19T10:33:47;99689.00;;;11.87;77.09
75063;BME280;63981;51.052;13.754;2023-11-19T10:36:13;99688.25;;;11.85;76.67
75063;BME280;63981;51.052;13.754;2023-11-19T10:38:40;99701.22;;;11.99;75.55
75063;BME280;63981;51.052;13.754;2023-11-19T10:41:06;99712.13;;;12.05;75.79
75063;BME280;63981;51.052;13.754;2023-11-19T10:43:43;99698.53;;;12.10;75.61
75063;BME280;63981;51.052;13.754;2023-11-19T10:46:14;99693.22;;;12.21;75.76
75063;BME280;63981;51.052;13.754;2023-11-19T10:48:40;99681.56;;;12.24;75.13
75063;BME280;63981;51.052;13.754;2023-11-19T10:51:07;99674.06;;;12.61;74.82
75063;BME280;63981;51.052;13.754;2023-11-19T10:53:36;99679.13;;;12.64;72.63
75063;BME280;63981;51.052;13.754;2023-11-19T10:56:04;99695.72;;;12.66;73.23
75063;BME280;63981;51.052;13.754;2023-11-19T10:58:35;99685.50;;;12.61;72.70
75063;BME280;63981;51.052;13.754;2023-11-19T11:01:09;99704.84;;;12.62;73.04
75063;BME280;63981;51.052;13.754;2023-11-19T11:03:40;99715.88;;;12.67;73.28
75063;BME280;63981;51.052;13.754;2023-11-19T11:06:08;99704.00;;;12.61;73.42
75063;BME280;63981;51.052;13.754;2023-11-19T11:08:37;99698.47;;;12.64;73.63
75063;BME280;63981;51.052;13.754;2023-11-19T11:11:05;99689.94;;;12.61;73.12
75063;BME280;63981;51.052;13.754;2023-11-19T11:13:33;99693.69;;;12.58;74.32
75063;BME280;63981;51.052;13.754;2023-11-19T11:16:00;99685.03;;;12.56;73.44
75063;BME280;63981;51.052;13.754;2023-11-19T11:18:27;99687.69;;;12.56;73.46
75063;BME280;63981;51.052;13.754;2023-11-19T11:21:07;99697.56;;;12.54;73.79
75063;BME280;63981;51.052;13.754;2023-11-19T11:24:30;99691.31;;;12.55;74.12
75063;BME280;63981;51.052;13.754;2023-11-19T11:29:19;99712.84;;;12.72;72.81
75063;BME280;63981;51.052;13.754;2023-11-19T11:35:14;99709.41;;;12.60;73.34
75063;BME280;63981;51.052;13.754;2023-11-19T11:40:16;99705.66;;;12.62;72.36
75063;BME280;63981;51.052;13.754;2023-11-19T11:42:47;99700.88;;;12.67;72.18
75063;BME280;63981;51.052;13.754;2023-11-19T11:45:14;99688.34;;;12.69;71.78
75063;BME280;63981;51.052;13.754;2023-11-19T11:50:09;99693.06;;;12.66;72.10
75063;BME280;63981;51.052;13.754;2023-11-19T11:55:24;99685.75;;;13.82;68.58
75063;BME280;63981;51.052;13.754;2023-11-19T11:57:50;99678.19;;;14.75;65.72
75063;BME280;63981;51.052;13.754;2023-11-19T12:00:33;99677.97;;;15.62;63.36
75063;BME280;63981;51.052;13.754;2023-11-19T12:03:04;99670.03;;;16.43;60.19
75063;BME280;63981;51.052;13.754;2023-11-19T12:05:31;99686.19;;;16.86;58.94
75063;BME280;63981;51.052;13.754;2023-11-19T12:08:01;99687.31;;;17.01;58.18
75063;BME280;63981;51.052;13.754;2023-11-19T12:10:32;99687.59;;;16.72;58.01
75063;BME280;63981;51.052;13.754;2023-11-19T12:12:59;99679.13;;;16.05;57.91
75063;BME280;63981;51.052;13.754;2023-11-19T12:15:25;99665.59;;;15.71;59.10
75063;BME280;63981;51.052;13.754;2023-11-19T12:17:54;99675.50;;;15.42;59.14
75063;BME280;63981;51.052;13.754;2023-11-19T12:20:23;99674.47;;;15.05;60.80
75063;BME280;63981;51.052;13.754;2023-11-19T12:22:50;99668.25;;;14.78;61.77
75063;BME280;63981;51.052;13.754;2023-11-19T12:25:17;99637.28;;;14.59;61.93
75063;BME280;63981;51.052;13.754;2023-11-19T12:27:45;99643.84;;;14.45;62.56
75063;BME280;63981;51.052;13.754;2023-11-19T12:30:12;99643.56;;;14.58;61.16
75063;BME280;63981;51.052;13.754;2023-11-19T12:32:45;99652.63;;;14.74;61.65
75063;BME280;63981;51.052;13.754;2023-11-19T12:35:12;99642.69;;;14.86;61.92
75063;BME280;63981;51.052;13.754;2023-11-19T12:37:40;99654.16;;;14.77;61.01
75063;BME280;63981;51.052;13.754;2023-11-19T12:40:14;99648.16;;;14.75;61.66
75063;BME280;63981;51.052;13.754;2023-11-19T12:42:42;99630.72;;;14.63;61.10
75063;BME280;63981;51.052;13.754;2023-11-19T12:45:36;99636.16;;;14.52;62.29
75063;BME280;63981;51.052;13.754;2023-11-19T12:48:06;99635.88;;;14.45;61.66
75063;BME280;63981;51.052;13.754;2023-11-19T12:53:19;99632.78;;;14.40;62.03
75063;BME280;63981;51.052;13.754;2023-11-19T12:55:44;99638.09;;;14.30;61.89
75063;BME280;63981;51.052;13.754;2023-11-19T12:58:31;99639.94;;;14.20;62.22
75063;BME280;63981;51.052;13.754;2023-11-19T13:01:05;99608.25;;;13.99;62.60
75063;BME280;63981;51.052;13.754;2023-11-19T13:03:36;99630.44;;;14.08;63.06
75063;BME280;63981;51.052;13.754;2023-11-19T13:06:08;99622.88;;;14.03;63.97
75063;BME280;63981;51.052;13.754;2023-11-19T13:11:07;99627.72;;;13.79;64.00
75063;BME280;63981;51.052;13.754;2023-11-19T13:13:58;99628.28;;;13.73;63.57
75063;BME280;63981;51.052;13.754;2023-11-19T13:16:26;99621.72;;;13.67;64.41
75063;BME280;63981;51.052;13.754;2023-11-19T13:18:53;99626.44;;;13.64;63.93